Forbes, Australia
Current Conditions -  °F | °C
As of 3:00 PM on Wednesday 28 Jan 2015 (Local Time) from YSDU Reporting Station
Overcast Overcast  
Wind Chill: 72°   Ceiling: 3600
Heat Index: 72°   Visibility: 6mi
Dew Point: 61°   Wind: 17mph
Humidity: 69%   Direction: 140°SE
Pressure: 29.85"   Gusts: NA
Location:  33.39°S, 148.01°E
Report Text: YSDU 280400Z AUTO 14015KT 9999 // BKN036 OVC055 22/16 Q1011
Loading
Personal Weather Stations






























Interactive Weather Map New forecast layout! Learn more

10-Day Weather Forecast

Advertisements
Track Severe Weather on mobile